This is the latest recevied weather packets stored in our database for station/object PP5ABU-13. If no packets are shown the sender has not sent any weather packets the latest 1 day(s).
| Time | Temp. | Humidity | Pressure | Rain* | Wind** | Luminosity | Snow |
|---|---|---|---|---|---|---|---|
| 1778023804 | 22.22° C | 97% | 1016.1 hPa | 0 mm | 0.45 m/s, 334° | - | - |
| 1778022904 | 22.78° C | 96% | 1016.1 hPa | 0 mm | 0.45 m/s, 328° | - | - |
| 1778022004 | 22.78° C | 93% | 1016.1 hPa | 0 mm | 0.45 m/s, 328° | - | - |
| 1778021104 | 22.78° C | 92% | 1015.9 hPa | 0 mm | 0.45 m/s, 324° | - | - |
| 1778020216 | 22.78° C | 91% | 1015.7 hPa | 0 mm | 0.45 m/s, 304° | - | - |
| 1778019304 | 22.78° C | 90% | 1015.5 hPa | 0 mm | 0.89 m/s, 326° | - | - |
| 1778018404 | 23.33° C | 88% | 1015.5 hPa | 0 mm | 0.45 m/s, 328° | - | - |
| 1778017504 | 23.33° C | 87% | 1015.5 hPa | 0 mm | 0.89 m/s, 335° | - | - |
| 1778016604 | 23.33° C | 86% | 1015.5 hPa | 0 mm | 0.45 m/s, 334° | - | - |
| 1778015705 | 23.89° C | 84% | 1015.3 hPa | 0 mm | 0.89 m/s, 346° | - | - |
| 1778014804 | 24.44° C | 82% | 1015.1 hPa | 0 mm | 0.89 m/s, 321° | - | - |
| 1778013904 | 25° C | 77% | 1014.9 hPa | 0 mm | 0.89 m/s, 317° | - | - |
| 1778013004 | 26.67° C | 74% | 1014.8 hPa | 0 mm | 0.89 m/s, 333° | - | - |
| 1778012104 | 27.78° C | 69% | 1014.5 hPa | 0 mm | 1.34 m/s, 318° | - | - |
| 1778011204 | 28.33° C | 66% | 1014.5 hPa | 0 mm | 1.34 m/s, 331° | - | - |
| 1778010303 | 28.89° C | 65% | 1014.4 hPa | 0 mm | 1.34 m/s, 322° | - | - |
| 1778009404 | 29.44° C | 64% | 1014.2 hPa | 0 mm | 1.79 m/s, 319° | - | - |
| 1778008504 | 30° C | 64% | 1014.2 hPa | 0 mm | 1.79 m/s, 334° | - | - |
| 1778007604 | 30° C | 64% | 1014.2 hPa | 0 mm | 1.34 m/s, 329° | - | - |
| 1778006704 | 30° C | 63% | 1014.2 hPa | 0 mm | 1.34 m/s, 323° | - | - |
| 1778005804 | 30° C | 64% | 1014.4 hPa | 0 mm | 1.79 m/s, 327° | - | - |
| 1778004904 | 29.44° C | 65% | 1014.3 hPa | 0 mm | 2.24 m/s, 329° | - | - |
| 1778004004 | 30° C | 62% | 1014.3 hPa | 0 mm | 1.79 m/s, 327° | - | - |
| 1778003104 | 30.56° C | 62% | 1014.5 hPa | 0 mm | 1.79 m/s, 324° | - | - |
| 1778002204 | 30.56° C | 61% | 1014.5 hPa | 0 mm | 1.79 m/s, 334° | - | - |
* Rain latest hour (hover to see other rain measurements)
** Current wind speed in m/s (hover to see current wind gust speed)